Time;durP1;ratioP1;P1;durP2;ratioP2;P2;SDS_P1;SDS_P2;PMS_P1;PMS_P2;Temp;Humidity;BMP_temperature;BMP_pressure;BME280_temperature;BME280_humidity;BME280_pressure;Samples;Min_cycle;Max_cycle;Signal;HPM_P1;HPM_P2
2021/07/23 00:01:31;;;;;;;3.77;0.90;;;;;;;14.50;70.52;99521.50;1733348;81;20881;-53
2021/07/23 00:03:57;;;;;;;2.33;0.80;;;;;;;14.47;70.67;99524.41;1746437;80;20965;-52
2021/07/23 00:06:24;;;;;;;1.82;0.88;;;;;;;14.46;70.81;99533.02;1748343;80;21484;-52
2021/07/23 00:08:50;;;;;;;2.08;0.80;;;;;;;14.44;70.94;99528.21;1750579;80;21311;-52
2021/07/23 00:11:16;;;;;;;1.55;0.88;;;;;;;14.43;70.98;99532.38;1731598;81;21034;-53
2021/07/23 00:13:43;;;;;;;2.12;0.80;;;;;;;14.42;71.04;99532.86;1730354;81;21072;-53
2021/07/23 00:16:09;;;;;;;1.50;0.70;;;;;;;14.41;71.13;99527.53;1731163;81;21088;-53
2021/07/23 00:18:36;;;;;;;3.75;0.80;;;;;;;14.39;71.19;99527.15;1731257;81;21127;-53
2021/07/23 00:21:02;;;;;;;2.17;1.10;;;;;;;14.37;71.21;99524.98;1728745;81;21855;-53
2021/07/23 00:23:28;;;;;;;1.50;1.25;;;;;;;14.38;71.18;99525.41;1745500;80;21932;-53
2021/07/23 00:25:55;;;;;;;3.08;0.75;;;;;;;14.37;71.07;99530.41;1747422;80;21863;-53
2021/07/23 00:28:21;;;;;;;5.25;1.00;;;;;;;14.34;71.09;99530.63;1751027;80;21087;-53
2021/07/23 00:30:49;;;;;;;4.45;1.20;;;;;;;14.32;71.13;99535.76;1747429;80;21061;-53
2021/07/23 00:33:15;;;;;;;5.28;0.90;;;;;;;14.30;71.11;99536.34;1723916;81;21123;-53
2021/07/23 00:35:41;;;;;;;5.03;0.82;;;;;;;14.28;71.17;99538.30;1716561;81;21122;-53
2021/07/23 00:38:11;;;;;;;2.87;0.90;;;;;;;14.28;71.20;99545.94;1720058;81;21088;-52
2021/07/23 00:40:37;;;;;;;1.77;0.88;;;;;;;14.27;71.23;99540.14;1721637;81;22127;-53
2021/07/23 00:43:04;;;;;;;5.22;0.88;;;;;;;14.28;71.26;99543.72;1718903;80;21135;-52
2021/07/23 00:45:31;;;;;;;2.10;1.00;;;;;;;14.27;71.26;99542.84;1747641;80;21143;-52
2021/07/23 00:48:01;;;;;;;7.30;1.20;;;;;;;14.24;71.24;99535.41;1719194;81;21030;-53
2021/07/23 00:50:25;;;;;;;2.37;0.90;;;;;;;14.23;71.22;99538.59;1745576;79;21032;-53
2021/07/23 00:52:52;;;;;;;3.90;1.12;;;;;;;14.21;71.20;99541.88;1779963;78;21087;-53
2021/07/23 00:55:18;;;;;;;3.90;0.80;;;;;;;14.18;71.21;99537.17;1782625;78;21119;-52
2021/07/23 00:57:45;;;;;;;4.00;0.80;;;;;;;14.16;71.25;99535.91;1779697;78;21189;-52
2021/07/23 01:00:13;;;;;;;1.95;0.80;;;;;;;14.14;71.27;99539.20;1781094;78;20965;-53
2021/07/23 01:02:41;;;;;;;5.53;0.75;;;;;;;14.13;71.31;99534.75;1774950;79;21565;-52
2021/07/23 01:05:09;;;;;;;2.00;0.80;;;;;;;14.12;71.37;99533.53;1782743;78;21546;-52
2021/07/23 01:07:36;;;;;;;3.10;0.72;;;;;;;14.12;71.41;99537.07;1778356;79;21055;-53
2021/07/23 01:10:04;;;;;;;4.78;0.80;;;;;;;14.12;71.43;99533.02;1780397;79;21098;-52
2021/07/23 01:12:49;;;;;;;5.03;0.88;;;;;;;14.11;71.43;99531.30;1784336;78;21260;-53
2021/07/23 01:15:15;;;;;;;2.62;0.70;;;;;;;14.10;71.45;99533.63;1783513;78;21029;-53
2021/07/23 01:17:41;;;;;;;7.08;0.75;;;;;;;14.09;71.46;99533.23;1781218;78;21116;-53
2021/07/23 01:20:17;;;;;;;0.80;0.70;;;;;;;14.07;71.49;99534.30;1750052;80;21061;-52
2021/07/23 01:22:44;;;;;;;1.72;0.80;;;;;;;14.07;71.51;99532.94;1783504;78;21632;-53
2021/07/23 01:25:12;;;;;;;4.83;0.80;;;;;;;14.05;71.55;99530.33;1752963;80;21059;-53
2021/07/23 01:27:43;;;;;;;2.35;0.70;;;;;;;14.03;71.63;99529.59;1746226;80;21088;-53
2021/07/23 01:30:10;;;;;;;3.80;0.60;;;;;;;14.03;71.72;99533.13;1774756;78;21054;-52
2021/07/23 01:32:38;;;;;;;2.85;0.70;;;;;;;14.05;71.75;99533.52;1782296;78;21103;-53
2021/07/23 01:35:06;;;;;;;2.42;0.80;;;;;;;14.03;71.72;99529.59;1753162;78;22083;-52
2021/07/23 01:37:34;;;;;;;2.15;0.80;;;;;;;14.02;71.79;99530.55;1781294;78;21490;-53
2021/07/23 01:40:01;;;;;;;2.80;0.90;;;;;;;14.01;71.80;99527.46;1781843;78;21488;-52
2021/07/23 01:42:27;;;;;;;1.37;0.75;;;;;;;14.00;71.79;99526.59;1784047;78;22286;-53
2021/07/23 01:44:55;;;;;;;4.05;0.80;;;;;;;13.96;71.80;99530.45;1758230;78;21405;-53
2021/07/23 01:47:22;;;;;;;1.52;0.60;;;;;;;13.96;71.86;99534.99;1783795;78;21114;-53
2021/07/23 01:49:49;;;;;;;1.45;0.68;;;;;;;13.95;71.87;99529.23;1783038;78;20992;-53
2021/07/23 01:52:17;;;;;;;3.77;0.60;;;;;;;13.93;71.93;99529.32;1744519;80;21076;-53
2021/07/23 01:54:45;;;;;;;1.62;0.70;;;;;;;13.94;71.98;99533.77;1777124;78;21028;-53
2021/07/23 01:57:13;;;;;;;3.58;0.80;;;;;;;13.94;71.99;99528.36;1744416;80;21049;-53
2021/07/23 01:59:39;;;;;;;4.83;0.85;;;;;;;13.94;71.97;99528.84;1775502;78;22363;-52
2021/07/23 02:02:06;;;;;;;1.67;0.80;;;;;;;13.93;71.91;99528.45;1745860;80;21012;-52
2021/07/23 02:04:34;;;;;;;6.12;0.70;;;;;;;13.91;71.93;99528.55;1740725;80;21071;-53
2021/07/23 02:07:02;;;;;;;7.85;1.42;;;;;;;13.90;71.97;99534.92;1776419;78;21100;-52
2021/07/23 02:09:28;;;;;;;1.82;0.70;;;;;;;13.86;71.95;99528.47;1778154;78;21578;-52
2021/07/23 02:11:58;;;;;;;2.42;0.60;;;;;;;13.83;71.98;99530.02;1746662;80;21395;-52
2021/07/23 02:14:29;;;;;;;3.95;0.60;;;;;;;13.79;71.99;99529.81;1779660;78;21420;-53
2021/07/23 02:16:56;;;;;;;3.22;0.60;;;;;;;13.77;72.04;99532.64;1781513;78;20917;-52
2021/07/23 02:19:22;;;;;;;2.80;0.68;;;;;;;13.76;72.04;99525.97;1745436;80;20917;-53
2021/07/23 02:21:50;;;;;;;1.30;0.60;;;;;;;13.76;72.06;99534.95;1751238;79;20973;-53
2021/07/23 02:24:19;;;;;;;3.20;0.70;;;;;;;13.76;72.06;99528.20;1780209;78;21075;-53
2021/07/23 02:26:45;;;;;;;2.45;0.70;;;;;;;13.77;72.08;99533.12;1780909;78;20961;-52
2021/07/23 02:29:11;;;;;;;2.70;0.60;;;;;;;13.77;72.11;99534.48;1779701;78;21170;-52
2021/07/23 02:31:39;;;;;;;0.80;0.65;;;;;;;13.76;72.13;99532.73;1747012;80;21549;-53
2021/07/23 02:34:08;;;;;;;3.80;1.00;;;;;;;13.75;72.15;99538.63;1777533;78;20877;-51
2021/07/23 02:37:13;;;;;;;1.73;0.97;;;;;;;13.77;72.21;99527.72;1846091;74;22420;-53
2021/07/23 02:39:39;;;;;;;2.85;0.62;;;;;;;13.72;72.26;99536.59;1843757;75;20990;-53
2021/07/23 02:42:06;;;;;;;4.60;0.60;;;;;;;13.72;72.35;99530.70;1839739;75;21025;-52
2021/07/23 02:44:34;;;;;;;1.52;0.72;;;;;;;13.73;72.48;99528.86;1836074;76;20960;-53
2021/07/23 02:47:02;;;;;;;3.17;0.60;;;;;;;13.74;72.57;99527.90;1835482;76;21282;-52
2021/07/23 02:49:29;;;;;;;3.75;0.60;;;;;;;13.76;72.73;99527.33;1834359;76;20998;-52
2021/07/23 02:51:55;;;;;;;0.78;0.50;;;;;;;13.77;72.83;99538.53;1836036;76;21075;-52
2021/07/23 02:54:22;;;;;;;4.33;0.80;;;;;;;13.78;72.87;99532.16;1839095;76;22417;-52
2021/07/23 02:56:49;;;;;;;1.02;0.70;;;;;;;13.79;72.98;99531.16;1807597;76;21342;-53
2021/07/23 02:59:16;;;;;;;1.70;0.62;;;;;;;13.79;72.97;99537.92;1812842;77;21530;-53
2021/07/23 03:01:45;;;;;;;1.60;0.60;;;;;;;13.77;73.01;99537.18;1834915;76;21079;-53
2021/07/23 03:04:12;;;;;;;0.60;0.50;;;;;;;13.76;73.12;99537.66;1834503;76;21080;-52
2021/07/23 03:06:39;;;;;;;2.58;0.60;;;;;;;13.77;73.23;99539.41;1838214;76;21057;-53
2021/07/23 03:09:06;;;;;;;1.87;0.60;;;;;;;13.80;73.40;99536.96;1836205;76;21009;-53
2021/07/23 03:11:33;;;;;;;5.45;0.60;;;;;;;13.82;73.57;99528.27;1839598;76;21302;-52
2021/07/23 03:14:01;;;;;;;1.02;0.60;;;;;;;13.86;73.80;99533.88;1834222;75;21048;-52
2021/07/23 03:16:30;;;;;;;1.32;0.60;;;;;;;13.90;73.96;99536.75;1836294;76;21119;-53
2021/07/23 03:18:57;;;;;;;3.62;0.70;;;;;;;13.96;74.09;99534.99;1838687;76;21228;-53
2021/07/23 03:21:23;;;;;;;2.05;0.60;;;;;;;14.00;74.16;99533.36;1840340;76;21888;-52
2021/07/23 03:23:51;;;;;;;1.52;0.65;;;;;;;14.05;74.33;99530.33;1832996;76;20982;-52
2021/07/23 03:26:19;;;;;;;3.70;0.88;;;;;;;14.09;74.41;99531.88;1839570;76;21038;-52
2021/07/23 03:28:48;;;;;;;1.07;0.47;;;;;;;14.14;74.43;99531.56;1842158;76;21077;-51
2021/07/23 03:31:16;;;;;;;4.60;0.60;;;;;;;14.18;74.35;99533.98;1837574;76;21776;-52
2021/07/23 03:33:44;;;;;;;1.20;0.60;;;;;;;14.24;74.25;99534.05;1834831;76;20980;-51
2021/07/23 03:36:11;;;;;;;1.47;0.60;;;;;;;14.30;74.07;99534.98;1836415;76;21052;-52
2021/07/23 03:38:38;;;;;;;5.17;0.60;;;;;;;14.37;74.05;99534.98;1837493;77;21451;-52
2021/07/23 03:41:05;;;;;;;4.22;0.50;;;;;;;14.46;73.84;99534.37;1836285;77;21578;-52
2021/07/23 03:43:33;;;;;;;1.00;0.60;;;;;;;14.54;73.74;99532.04;1838361;77;21576;-51
2021/07/23 03:46:04;;;;;;;1.45;0.60;;;;;;;14.62;73.59;99539.64;1836677;77;21088;-51
2021/07/23 03:48:32;;;;;;;2.65;0.60;;;;;;;14.69;73.32;99535.05;1838503;77;21045;-51
2021/07/23 03:50:59;;;;;;;1.72;0.70;;;;;;;14.76;73.14;99536.84;1838075;77;20988;-52
2021/07/23 03:53:27;;;;;;;3.45;0.60;;;;;;;14.83;72.96;99531.38;1838568;77;21072;-51
2021/07/23 03:56:07;;;;;;;;;;;;;;;14.90;72.79;99535.39;1835333;77;21074;-53
2021/07/23 03:58:36;;;;;;;1.40;0.50;;;;;;;14.99;72.66;99528.47;1836444;77;20230;-52
2021/07/23 04:01:05;;;;;;;1.15;0.45;;;;;;;15.03;72.39;99524.09;1837101;77;21424;-54
2021/07/23 04:03:33;;;;;;;1.27;0.50;;;;;;;15.11;72.22;99532.55;1832454;77;21427;-53
2021/07/23 04:06:01;;;;;;;2.65;0.50;;;;;;;15.21;72.17;99535.98;1836154;77;21066;-53
2021/07/23 04:08:28;;;;;;;2.02;0.82;;;;;;;15.29;71.98;99530.39;1836632;77;22074;-53
2021/07/23 04:10:56;;;;;;;4.47;0.50;;;;;;;15.38;71.93;99528.87;1835195;77;21049;-52
2021/07/23 04:13:24;;;;;;;1.25;0.70;;;;;;;15.46;71.78;99525.98;1835354;77;21451;-53
2021/07/23 04:15:50;;;;;;;2.25;0.60;;;;;;;15.54;71.24;99528.18;1793795;79;21045;-53
2021/07/23 04:18:17;;;;;;;3.30;0.60;;;;;;;15.61;70.85;99527.23;1758505;80;21109;-52
2021/07/23 04:20:45;;;;;;;3.75;0.60;;;;;;;15.66;70.42;99525.05;1772683;79;21474;-53
2021/07/23 04:23:12;;;;;;;2.70;0.47;;;;;;;15.75;70.05;99527.09;1770472;80;21081;-52
2021/07/23 04:25:40;;;;;;;2.50;0.50;;;;;;;15.81;70.18;99528.89;1771117;80;21480;-52
2021/07/23 04:28:08;;;;;;;1.50;0.50;;;;;;;15.89;69.69;99526.48;1757331;79;21939;-52
2021/07/23 04:30:36;;;;;;;0.85;0.50;;;;;;;15.99;69.23;99521.73;1775879;80;21035;-52
2021/07/23 04:33:22;;;;;;;1.25;0.45;;;;;;;16.10;68.93;99520.42;1792987;79;21140;-53
2021/07/23 04:35:57;;;;;;;3.45;0.50;;;;;;;16.24;68.32;99517.08;1755366;79;21075;-52
2021/07/23 04:38:23;;;;;;;2.67;0.30;;;;;;;16.39;68.06;99520.97;1781616;79;21068;-52
2021/07/23 04:40:51;;;;;;;1.25;0.50;;;;;;;16.49;67.76;99516.58;1776507;79;21068;-52
2021/07/23 04:43:20;;;;;;;1.10;0.40;;;;;;;16.58;67.24;99514.03;1775070;79;21458;-53
2021/07/23 04:45:47;;;;;;;0.53;0.35;;;;;;;16.66;66.59;99512.59;1774171;79;21467;-53
2021/07/23 04:48:14;;;;;;;5.85;0.40;;;;;;;16.72;66.62;99517.06;1774759;78;21696;-54
2021/07/23 04:51:02;;;;;;;2.00;0.30;;;;;;;16.78;66.13;99511.64;1778688;79;21084;-53
2021/07/23 04:53:48;;;;;;;5.22;0.40;;;;;;;16.85;65.83;99512.89;1760494;79;21094;-52
2021/07/23 04:56:30;;;;;;;0.60;0.30;;;;;;;16.91;65.55;99505.14;1681737;79;21103;-52
2021/07/23 04:58:56;;;;;;;3.17;0.50;;;;;;;17.00;65.30;99510.36;1780422;78;21957;-53
2021/07/23 05:01:23;;;;;;;9.28;0.30;;;;;;;17.08;64.58;99508.39;1783192;79;20906;-52
2021/07/23 05:03:49;;;;;;;0.90;0.30;;;;;;;17.16;64.30;99508.16;1781507;79;21312;-53
2021/07/23 05:06:16;;;;;;;2.62;0.30;;;;;;;17.23;63.68;99512.13;1780064;78;21440;-51
2021/07/23 05:08:44;;;;;;;0.50;0.40;;;;;;;17.33;63.50;99510.41;1779062;79;21524;-52
2021/07/23 05:11:14;;;;;;;1.62;0.40;;;;;;;17.45;63.28;99513.11;1781774;79;21744;-53
2021/07/23 05:13:44;;;;;;;1.52;0.40;;;;;;;17.55;63.53;99509.53;1782667;79;20973;-51
2021/07/23 05:16:11;;;;;;;1.07;0.30;;;;;;;17.66;63.18;99513.66;1779926;79;20965;-52
2021/07/23 05:18:39;;;;;;;5.28;0.30;;;;;;;17.75;62.81;99517.00;1781174;79;20969;-52
2021/07/23 05:21:06;;;;;;;2.98;0.37;;;;;;;17.84;62.40;99507.70;1779519;79;20997;-51
2021/07/23 05:23:33;;;;;;;3.77;0.40;;;;;;;17.91;61.94;99512.52;1782383;78;21061;-52
2021/07/23 05:25:59;;;;;;;2.12;0.30;;;;;;;17.99;61.93;99514.12;1800075;78;20930;-53
2021/07/23 05:28:26;;;;;;;5.12;0.50;;;;;;;18.07;61.62;99517.07;1769550;80;20898;-52
2021/07/23 05:30:52;;;;;;;2.10;0.40;;;;;;;18.14;61.15;99516.92;1773363;79;20957;-53
2021/07/23 05:33:19;;;;;;;1.55;0.30;;;;;;;18.21;60.66;99512.31;1766576;80;20914;-52
2021/07/23 05:35:46;;;;;;;2.15;0.30;;;;;;;18.26;60.61;99506.01;1783467;79;21047;-53
2021/07/23 05:38:14;;;;;;;0.93;0.40;;;;;;;18.33;60.28;99511.30;1748060;79;20899;-52
2021/07/23 05:40:41;;;;;;;1.15;0.30;;;;;;;18.38;60.16;99509.91;1718945;81;20930;-53
2021/07/23 05:43:08;;;;;;;2.25;0.40;;;;;;;18.45;60.34;99508.92;1752445;81;20942;-52
2021/07/23 05:45:38;;;;;;;2.52;0.40;;;;;;;18.52;60.22;99510.13;1723906;81;22127;-52
2021/07/23 05:48:06;;;;;;;2.98;0.40;;;;;;;18.57;60.07;99510.63;1754542;79;21829;-53
2021/07/23 05:50:32;;;;;;;1.55;0.30;;;;;;;18.65;60.28;99509.97;1752815;80;20935;-53
2021/07/23 05:52:59;;;;;;;3.15;0.30;;;;;;;18.70;60.14;99506.37;1720133;81;21084;-52
2021/07/23 05:55:26;;;;;;;1.47;0.40;;;;;;;18.77;59.82;99511.17;1748727;81;21513;-53
2021/07/23 05:57:59;;;;;;;4.42;0.50;;;;;;;18.83;59.85;99517.45;1719574;81;21087;-53
2021/07/23 06:00:26;;;;;;;0.98;0.33;;;;;;;18.91;59.93;99514.06;1746416;81;21205;-53
2021/07/23 06:02:54;;;;;;;1.07;0.45;;;;;;;19.00;59.50;99513.77;1722634;81;21076;-53
2021/07/23 06:05:21;;;;;;;1.72;0.40;;;;;;;19.06;59.42;99514.58;1749019;81;21049;-53
2021/07/23 06:07:47;;;;;;;2.42;0.50;;;;;;;19.11;59.26;99515.94;1747619;81;21323;-52
2021/07/23 06:10:13;;;;;;;0.75;0.40;;;;;;;19.17;59.12;99513.16;1724543;81;21490;-53
2021/07/23 06:12:40;;;;;;;4.00;0.50;;;;;;;19.23;58.85;99510.75;1748874;80;21106;-53
2021/07/23 06:15:07;;;;;;;2.40;0.47;;;;;;;19.30;58.50;99517.92;1719038;81;21096;-53
2021/07/23 06:17:34;;;;;;;0.50;0.33;;;;;;;19.37;58.79;99510.92;1748301;81;21577;-53
2021/07/23 06:20:00;;;;;;;4.20;0.40;;;;;;;19.44;58.33;99511.23;1748249;80;21743;-53
2021/07/23 06:22:27;;;;;;;2.83;0.40;;;;;;;19.51;58.38;99517.41;1730473;82;22136;-52
2021/07/23 06:24:56;;;;;;;1.25;0.50;;;;;;;19.59;58.21;99518.09;1719155;81;21132;-53
2021/07/23 06:27:23;;;;;;;4.25;0.50;;;;;;;19.67;58.05;99510.58;1723860;81;21045;-53
2021/07/23 06:29:53;;;;;;;4.03;0.40;;;;;;;19.75;57.96;99504.80;1754651;79;21015;-53
2021/07/23 06:32:20;;;;;;;1.12;0.30;;;;;;;19.83;57.95;99505.47;1757184;79;21472;-53
2021/07/23 06:34:47;;;;;;;1.67;0.40;;;;;;;19.92;57.91;99502.77;1750782;80;21576;-52
2021/07/23 06:37:16;;;;;;;3.47;0.40;;;;;;;20.00;57.40;99500.20;1762345;79;21116;-53
2021/07/23 06:39:42;;;;;;;2.45;0.40;;;;;;;20.09;56.51;99499.00;1779952;79;21589;-53
2021/07/23 06:42:08;;;;;;;1.72;0.40;;;;;;;20.16;56.33;99492.83;1780565;79;21062;-53
2021/07/23 06:44:36;;;;;;;0.70;0.30;;;;;;;20.25;55.75;99495.22;1778092;79;21085;-52
2021/07/23 06:47:03;;;;;;;1.67;0.93;;;;;;;20.31;56.00;99494.17;1784443;79;20930;-53
2021/07/23 06:49:29;;;;;;;1.75;0.30;;;;;;;20.38;55.94;99490.40;1779485;79;21742;-52
2021/07/23 06:51:56;;;;;;;1.35;0.40;;;;;;;20.46;56.10;99493.78;1782027;79;21777;-53
2021/07/23 06:54:22;;;;;;;1.12;0.30;;;;;;;20.53;55.15;99496.30;1779166;79;21035;-53
2021/07/23 06:56:52;;;;;;;0.30;0.20;;;;;;;20.58;54.66;99489.41;1779300;79;21556;-52
2021/07/23 06:59:19;;;;;;;2.42;0.30;;;;;;;20.64;54.04;99492.06;1779855;79;21144;-53
2021/07/23 07:01:45;;;;;;;1.67;0.30;;;;;;;20.69;53.32;99499.32;1778984;79;21122;-54
2021/07/23 07:04:12;;;;;;;0.50;0.30;;;;;;;20.73;53.56;99499.41;1777089;79;21930;-54
2021/07/23 07:06:38;;;;;;;0.80;0.30;;;;;;;20.77;52.53;99493.99;1776911;79;21550;-52
2021/07/23 07:09:05;;;;;;;0.40;0.20;;;;;;;20.81;51.36;99494.08;1780827;79;21311;-53
2021/07/23 07:11:32;;;;;;;1.00;0.30;;;;;;;20.85;51.48;99490.03;1779510;79;22015;-53
2021/07/23 07:13:59;;;;;;;1.05;0.40;;;;;;;20.92;51.53;99487.59;1779036;79;21346;-53
2021/07/23 07:16:26;;;;;;;0.42;0.30;;;;;;;20.97;51.46;99488.01;1782106;79;20902;-54
2021/07/23 07:18:52;;;;;;;0.40;0.30;;;;;;;21.01;51.12;99486.19;1783688;79;20941;-53
2021/07/23 07:21:18;;;;;;;0.30;0.20;;;;;;;21.07;50.99;99486.12;1781272;79;21104;-53
2021/07/23 07:23:45;;;;;;;0.80;0.30;;;;;;;21.13;50.78;99477.32;1776130;78;21045;-53
2021/07/23 07:26:11;;;;;;;0.75;0.60;;;;;;;21.18;50.07;99480.50;1777812;79;21114;-53
2021/07/23 07:28:38;;;;;;;0.60;0.33;;;;;;;21.24;49.63;99486.77;1775435;79;20945;-53
2021/07/23 07:31:05;;;;;;;0.78;0.37;;;;;;;21.27;48.49;99481.48;1777325;78;21037;-53
2021/07/23 07:33:32;;;;;;;2.45;0.60;;;;;;;21.30;48.28;99477.09;1781880;79;21089;-53
2021/07/23 07:35:58;;;;;;;4.05;1.05;;;;;;;21.35;49.18;99481.64;1783928;79;21132;-53
2021/07/23 07:38:25;;;;;;;2.00;0.40;;;;;;;21.42;48.69;99488.23;1776278;79;21072;-53
2021/07/23 07:40:51;;;;;;;0.40;0.20;;;;;;;21.49;48.95;99486.12;1776676;79;21120;-53
2021/07/23 07:43:20;;;;;;;0.82;0.28;;;;;;;21.56;48.61;99487.74;1779722;79;21135;-52
2021/07/23 07:45:46;;;;;;;0.37;0.30;;;;;;;21.61;47.38;99486.77;1775512;80;21268;-54
2021/07/23 07:48:12;;;;;;;1.20;0.30;;;;;;;21.67;47.80;99486.19;1774855;79;21051;-53
2021/07/23 07:50:39;;;;;;;0.45;0.30;;;;;;;21.73;46.96;99480.10;1777707;79;21496;-54
2021/07/23 07:53:13;;;;;;;4.20;0.30;;;;;;;21.78;46.15;99479.63;1774148;80;21061;-53
2021/07/23 07:55:37;;;;;;;1.57;0.30;;;;;;;21.84;46.70;99478.55;1778289;80;21340;-53
2021/07/23 07:58:03;;;;;;;1.15;0.30;;;;;;;21.89;46.34;99484.41;1758022;79;20989;-53
2021/07/23 08:00:29;;;;;;;1.27;0.33;;;;;;;21.97;46.25;99482.31;1777515;79;20977;-54
2021/07/23 08:02:56;;;;;;;0.57;0.20;;;;;;;22.04;46.46;99488.04;1779806;79;21034;-54
2021/07/23 08:05:22;;;;;;;2.05;0.23;;;;;;;22.12;45.70;99496.36;1775808;79;20962;-53
2021/07/23 08:07:49;;;;;;;0.20;0.10;;;;;;;22.17;44.47;99486.67;1780196;79;20903;-53
2021/07/23 08:10:16;;;;;;;2.60;0.20;;;;;;;22.24;45.22;99492.40;1780662;79;20871;-54
2021/07/23 08:12:43;;;;;;;0.20;0.10;;;;;;;22.31;44.82;99488.02;1777279;79;21450;-54
2021/07/23 08:15:11;;;;;;;0.80;0.20;;;;;;;22.37;44.62;99487.39;1780129;79;21054;-53
2021/07/23 08:17:37;;;;;;;0.53;0.20;;;;;;;22.45;44.52;99484.77;1777376;79;21448;-54
2021/07/23 08:20:05;;;;;;;0.50;0.30;;;;;;;22.53;44.61;99481.23;1779389;79;21518;-54
2021/07/23 08:22:32;;;;;;;0.57;0.30;;;;;;;22.56;43.43;99484.51;1778917;79;21377;-54
2021/07/23 08:24:59;;;;;;;0.25;0.20;;;;;;;22.62;43.59;99489.39;1731048;79;20945;-54
2021/07/23 08:27:25;;;;;;;3.40;0.80;;;;;;;22.67;44.27;99487.53;1778498;79;21158;-54
2021/07/23 08:29:51;;;;;;;5.22;1.10;;;;;;;22.75;44.04;99489.02;1777600;79;21417;-54
2021/07/23 08:32:18;;;;;;;1.57;0.30;;;;;;;22.85;44.76;99488.42;1778464;79;20865;-54
2021/07/23 08:34:44;;;;;;;3.30;0.40;;;;;;;22.95;43.63;99489.70;1779749;79;20907;-57
2021/07/23 08:37:10;;;;;;;0.30;0.20;;;;;;;23.00;43.83;99487.34;1775218;79;21062;-54
2021/07/23 08:39:37;;;;;;;1.70;0.30;;;;;;;23.01;42.97;99491.30;1776301;79;21099;-53
2021/07/23 08:42:25;;;;;;;2.92;0.20;;;;;;;22.98;42.19;99500.34;1773826;79;21535;-54
2021/07/23 08:44:51;;;;;;;0.40;0.23;;;;;;;22.89;42.65;99491.69;1776932;78;21045;-54
2021/07/23 08:47:19;;;;;;;1.98;0.20;;;;;;;22.85;41.74;99491.67;1779117;79;21534;-54
2021/07/23 08:49:47;;;;;;;3.02;0.23;;;;;;;22.84;42.29;99495.44;1781483;79;20917;-54
2021/07/23 08:52:13;;;;;;;1.82;0.20;;;;;;;22.84;40.93;99488.58;1799715;78;21040;-54
2021/07/23 08:54:39;;;;;;;1.85;0.25;;;;;;;22.82;40.99;99481.87;1762014;79;21626;-54
2021/07/23 08:57:09;;;;;;;0.78;0.20;;;;;;;22.85;42.09;99490.30;1762915;80;21084;-54
2021/07/23 08:59:36;;;;;;;1.20;0.20;;;;;;;22.89;41.42;99471.11;1782359;79;21068;-53
2021/07/23 09:02:06;;;;;;;1.37;0.20;;;;;;;22.96;42.14;99479.09;1778544;79;21079;-54
2021/07/23 09:04:36;;;;;;;1.65;0.20;;;;;;;22.98;42.43;99476.51;1768429;79;22172;-53
2021/07/23 09:07:23;;;;;;;1.80;0.30;;;;;;;23.02;41.14;99482.55;1776887;79;20977;-53
2021/07/23 09:10:04;;;;;;;0.50;0.20;;;;;;;23.03;41.37;99477.42;1778465;79;21021;-53
2021/07/23 09:12:43;;;;;;;0.28;0.20;;;;;;;23.06;41.41;99470.73;1799086;78;21100;-54
2021/07/23 09:15:19;;;;;;;1.95;0.30;;;;;;;23.12;42.28;99474.23;1766887;80;21397;-54
2021/07/23 09:17:45;;;;;;;0.53;0.30;;;;;;;23.14;42.26;99476.31;1800531;78;21790;-53
2021/07/23 09:20:12;;;;;;;2.37;0.20;;;;;;;23.15;41.25;99477.50;1801321;77;21555;-54
2021/07/23 09:22:47;;;;;;;0.60;0.30;;;;;;;23.14;41.94;99479.06;1765809;79;21053;-54
2021/07/23 09:25:14;;;;;;;2.15;0.20;;;;;;;23.18;41.36;99474.44;1764435;80;21332;-54
2021/07/23 09:27:42;;;;;;;1.20;0.30;;;;;;;23.26;42.36;99468.14;1798892;78;21081;-54
2021/07/23 09:30:10;;;;;;;2.67;0.30;;;;;;;23.36;42.44;99463.41;1765653;79;21066;-54
2021/07/23 09:32:37;;;;;;;4.15;0.30;;;;;;;23.44;40.75;99459.34;1770205;79;21017;-54
2021/07/23 09:35:14;;;;;;;1.22;0.20;;;;;;;23.50;41.22;99461.45;1768615;80;21088;-54
2021/07/23 09:37:59;;;;;;;2.75;0.23;;;;;;;23.51;40.53;99450.81;1763901;79;21043;-54
2021/07/23 09:40:25;;;;;;;1.22;0.20;;;;;;;23.54;40.60;99456.51;1765142;79;21571;-54
2021/07/23 09:42:58;;;;;;;2.27;0.20;;;;;;;23.58;41.85;99457.38;1759288;79;21117;-54
2021/07/23 09:45:31;;;;;;;0.30;0.25;;;;;;;23.63;41.36;99453.64;1765678;79;20898;-53
2021/07/23 09:48:12;;;;;;;0.47;0.30;;;;;;;23.69;39.82;99452.98;1764872;79;21065;-53
2021/07/23 09:50:46;;;;;;;0.80;0.20;;;;;;;23.68;39.79;99446.27;1765028;79;21093;-53
2021/07/23 09:53:20;;;;;;;0.50;0.20;;;;;;;23.70;39.99;99449.20;1745063;79;21790;-53
2021/07/23 09:55:47;;;;;;;1.12;0.20;;;;;;;23.74;41.40;99440.10;1768537;79;21673;-53
2021/07/23 09:58:20;;;;;;;0.23;0.20;;;;;;;23.81;40.79;99447.20;1751199;79;21435;-53
2021/07/23 10:00:56;;;;;;;0.40;0.30;;;;;;;23.85;40.31;99440.32;1745793;79;21407;-53
2021/07/23 10:03:27;;;;;;;0.60;0.30;;;;;;;23.90;40.67;99442.08;1739404;80;21072;-53
2021/07/23 10:06:08;;;;;;;1.00;0.37;;;;;;;23.94;40.26;99444.31;1758721;80;21542;-53
2021/07/23 10:08:38;;;;;;;6.60;0.33;;;;;;;23.94;40.04;99448.95;1731698;80;21167;-53
2021/07/23 10:11:06;;;;;;;2.05;0.30;;;;;;;23.92;39.79;99439.48;1753440;79;20928;-53
2021/07/23 10:13:34;;;;;;;0.72;0.30;;;;;;;23.94;39.94;99436.58;1736647;80;20984;-54
2021/07/23 10:16:00;;;;;;;1.22;0.20;;;;;;;23.98;39.22;99436.61;1722855;81;21126;-53
2021/07/23 10:18:26;;;;;;;1.80;0.20;;;;;;;24.00;39.32;99423.02;1735237;80;21016;-53
2021/07/23 10:20:53;;;;;;;1.52;0.33;;;;;;;24.06;39.29;99425.63;1750359;80;22006;-54
2021/07/23 10:23:21;;;;;;;1.57;0.30;;;;;;;24.11;40.46;99431.48;1738056;80;21424;-53
2021/07/23 10:25:51;;;;;;;0.70;0.30;;;;;;;24.15;39.55;99430.13;1744421;80;21073;-53
2021/07/23 10:28:46;;;;;;;0.53;0.30;;;;;;;24.18;39.80;99427.53;1734532;80;21510;-53
2021/07/23 10:31:35;;;;;;;0.78;0.20;;;;;;;24.24;39.48;99436.55;1752770;79;21048;-53
2021/07/23 10:34:10;;;;;;;0.40;0.30;;;;;;;24.25;37.86;99423.97;1732178;80;21201;-54
2021/07/23 10:36:39;;;;;;;1.77;0.30;;;;;;;24.26;38.18;99422.08;1744068;80;21490;-54
2021/07/23 10:39:19;;;;;;;0.55;0.30;;;;;;;24.30;38.70;99420.22;1752813;80;20931;-53
2021/07/23 10:41:52;;;;;;;0.53;0.30;;;;;;;24.33;39.13;99423.16;1779877;79;20933;-54
2021/07/23 10:44:31;;;;;;;6.33;0.40;;;;;;;24.34;39.16;99414.70;1791290;78;20890;-54
2021/07/23 10:47:02;;;;;;;0.50;0.30;;;;;;;24.37;40.04;99425.89;1786030;79;21090;-54
2021/07/23 10:49:34;;;;;;;3.85;0.30;;;;;;;24.38;38.50;99421.60;1790713;78;20910;-54
2021/07/23 10:52:02;;;;;;;0.50;0.30;;;;;;;24.39;38.66;99411.47;1788639;78;20855;-54
2021/07/23 10:54:33;;;;;;;3.70;0.30;;;;;;;24.43;39.08;99418.33;1789996;78;20961;-54
2021/07/23 10:57:06;;;;;;;0.50;0.30;;;;;;;24.47;38.12;99405.97;1791787;78;20913;-54
2021/07/23 10:59:48;;;;;;;3.47;0.30;;;;;;;24.45;38.63;99412.15;1782457;78;21052;-53
2021/07/23 11:02:21;;;;;;;0.80;0.30;;;;;;;24.46;39.05;99409.75;1783660;78;21057;-53
2021/07/23 11:04:47;;;;;;;1.52;0.40;;;;;;;24.47;39.29;99397.72;1784367;79;21124;-53
2021/07/23 11:07:15;;;;;;;1.52;0.20;;;;;;;24.45;38.92;99395.12;1786055;78;21507;-54
2021/07/23 11:09:44;;;;;;;0.40;0.30;;;;;;;24.46;39.27;99405.62;1789525;78;21329;-54
2021/07/23 11:12:31;;;;;;;1.12;0.30;;;;;;;24.47;38.78;99389.46;1783566;79;21138;-53
2021/07/23 11:15:03;;;;;;;1.10;0.30;;;;;;;24.48;38.26;99384.31;1788542;78;20937;-54
2021/07/23 11:17:31;;;;;;;0.80;0.33;;;;;;;24.48;39.33;99388.44;1782102;79;20946;-53
2021/07/23 11:20:01;;;;;;;2.05;0.33;;;;;;;24.52;39.41;99391.17;1760328;79;20969;-53
2021/07/23 11:22:36;;;;;;;0.88;0.35;;;;;;;24.56;38.71;99391.70;1785148;79;20969;-54
2021/07/23 11:25:05;;;;;;;2.65;0.40;;;;;;;24.57;38.51;99388.78;1786734;79;21110;-54
2021/07/23 11:27:33;;;;;;;0.50;0.30;;;;;;;24.59;38.76;99390.82;1781956;78;20937;-54
2021/07/23 11:30:00;;;;;;;1.35;0.30;;;;;;;24.63;38.48;99383.09;1782636;79;21658;-54
2021/07/23 11:32:34;;;;;;;0.78;0.30;;;;;;;24.65;38.63;99380.52;1758934;79;21506;-56
2021/07/23 11:35:05;;;;;;;0.70;0.50;;;;;;;24.65;38.29;99390.67;1782732;79;21041;-54
2021/07/23 11:37:32;;;;;;;0.75;0.53;;;;;;;24.66;38.14;99389.64;1785819;79;21027;-55
2021/07/23 11:40:03;;;;;;;2.75;0.35;;;;;;;24.66;38.38;99379.50;1780825;79;20874;-54
2021/07/23 11:42:40;;;;;;;0.68;0.40;;;;;;;24.68;39.35;99380.16;1779734;79;21514;-55